»·PEaware :: ASU4 KWJF-KLAX

ASU4 :: KWJF-KLAX

FLIGHT INFORMATION

Flight Status: Arrived
Operator:
Arizona State University
More flights by this operator :: More flights under this callsign
Pilot: Arizona State University (3812)
Aircraft: BEECH AIRCRAFT SUPER KING AIR COMMUTER
(BE20)
More flights by this aircraft type
Origin: KWJF Gen Fox
United States
Destination: KLAX Los Angeles Intl
United States
More flights between these airports :: More routes between these airports
Route: +KWJF PMD KIMMO3 KLAX
File this flight plan on PilotEdge
Remarks: REQUEST HOLDING AT DARTS*** Call Sign is Sundevil 4. Request ILS 24R at KLAX
Altitude:
(Current/Filed)
10,000ft
Speed:
(Current/Filed)
240kts
Departed: 29-Nov-18 12:42 PM
Arrived: 29-Nov-18 01:17 PM
Distance/Time
Traveled:
49nm/0:34
Distance/Time
To Go:
Arrived

Flight Plot

Page will automatically refresh every two minutes.

Flight plan parsing failed; only flown route is shown


Map Options




Map Legend


Flown Route
Filed Route
Departure Airport
Arrival Airport
Navaid (VOR, NDB)
Fix

Horizontal Profiles

Position Reports

Time Latitude Longitude Heading Altitude Ground
Speed
29-Nov-18 12:21 34.738941 -118.215973 318 2352ft 17kts
29-Nov-18 12:22 34.738941 -118.215973 318 2352ft 17kts
29-Nov-18 12:23 34.738941 -118.215973 318 2352ft 18kts
29-Nov-18 12:24 34.738941 -118.215973 318 2352ft 16kts
29-Nov-18 12:25 34.738949 -118.215983 309 2352ft 16kts
29-Nov-18 12:26 34.738949 -118.215983 309 2352ft 17kts
29-Nov-18 12:27 34.738949 -118.215983 309 2352ft 17kts
29-Nov-18 12:28 34.738949 -118.215983 309 2352ft 16kts
29-Nov-18 12:29 34.738949 -118.215983 309 2352ft 17kts
29-Nov-18 12:30 34.738949 -118.215983 309 2352ft 16kts
29-Nov-18 12:31 34.738949 -118.215983 309 2352ft 16kts
29-Nov-18 12:32 34.738949 -118.215983 309 2352ft 16kts
29-Nov-18 12:33 34.738949 -118.215983 309 2352ft 16kts
29-Nov-18 12:34 34.738949 -118.215983 309 2352ft 16kts
29-Nov-18 12:35 34.738949 -118.215983 309 2352ft 17kts
29-Nov-18 12:36 34.738949 -118.215983 309 2352ft 16kts
29-Nov-18 12:37 34.738949 -118.215983 309 2352ft 17kts
29-Nov-18 12:38 34.738950 -118.215985 309 2352ft 16kts
29-Nov-18 12:39 34.739234 -118.221263 252 2352ft 27kts
29-Nov-18 12:40 34.739717 -118.219492 71 2352ft 37kts
29-Nov-18 12:41 34.742325 -118.210298 54 2352ft 16kts
29-Nov-18 12:42 34.743434 -118.207217 340 2352ft 15kts
29-Nov-18 12:43 34.743434 -118.207217 340 2352ft 15kts
29-Nov-18 12:44 34.743924 -118.207913 254 2352ft 10kts
29-Nov-18 12:45 34.735988 -118.234251 228 4023ft 119kts
29-Nov-18 12:46 34.707983 -118.205473 105 6025ft 171kts
29-Nov-18 12:47 34.689290 -118.131700 130 6128ft 228kts
29-Nov-18 12:48 34.643068 -118.077294 155 6037ft 222kts
29-Nov-18 12:49 34.603177 -118.108137 234 7559ft 189kts
29-Nov-18 12:50 34.572748 -118.153967 234 9796ft 197kts
29-Nov-18 12:51 34.538914 -118.209181 237 10202ft 236kts
29-Nov-18 12:52 34.505115 -118.266972 234 10129ft 223kts
29-Nov-18 12:53 34.495474 -118.280457 233 10102ft 223kts
29-Nov-18 12:57 34.279813 -118.340833 158 10000ft 223kts
29-Nov-18 12:58 34.224065 -118.308412 158 10001ft 223kts
29-Nov-18 12:59 34.166621 -118.275131 157 9427ft 241kts
29-Nov-18 13:00 34.132835 -118.213309 65 8428ft 234kts
29-Nov-18 13:01 34.187095 -118.198753 331 7427ft 210kts
29-Nov-18 13:02 34.237432 -118.226362 311 6995ft 182kts
29-Nov-18 13:03 34.215808 -118.251155 152 6999ft 185kts
29-Nov-18 13:04 34.172439 -118.215926 133 7002ft 185kts
29-Nov-18 13:05 34.195289 -118.178316 332 7003ft 181kts
29-Nov-18 13:06 34.243162 -118.202967 331 7001ft 191kts
29-Nov-18 13:07 34.254102 -118.247274 222 7001ft 204kts
29-Nov-18 13:08 34.212168 -118.285195 208 7005ft 209kts
29-Nov-18 13:09 34.158467 -118.270363 159 7016ft 210kts
29-Nov-18 13:10 34.105087 -118.232160 151 6205ft 233kts
29-Nov-18 13:11 34.054191 -118.187783 142 5769ft 226kts
29-Nov-18 13:12 34.005172 -118.135588 142 4769ft 231kts
29-Nov-18 13:13 33.957600 -118.117449 236 3988ft 169kts
29-Nov-18 13:14 33.974794 -118.165994 275 3375ft 180kts
29-Nov-18 13:15 33.969841 -118.227413 261 2376ft 182kts
29-Nov-18 13:16 33.964838 -118.276400 260 2115ft 139kts
29-Nov-18 13:17 33.960574 -118.318058 258 1513ft 107kts
29-Nov-18 13:18 33.957079 -118.352599 259 972ft 111kts
29-Nov-18 13:19 33.953362 -118.388983 259 385ft 102kts
29-Nov-18 13:20 33.950383 -118.410979 175 130ft 0kts
29-Nov-18 13:21 33.948680 -118.410699 171 130ft 0kts
29-Nov-18 13:22 33.948658 -118.410695 170 130ft 2kts
29-Nov-18 13:23 33.946989 -118.407670 157 130ft 0kts

Navigation Log

Ident Type
Flight plan parsing failed, navigation log unavailable